createdAt,value
2018-05-15T00:00:58.304Z,1016.94
2018-05-15T00:02:07.165Z,1016.97
2018-05-15T00:03:16.308Z,1016.95
2018-05-15T00:04:25.168Z,1016.95
2018-05-15T00:05:34.029Z,1016.95
2018-05-15T00:06:42.891Z,1016.96
2018-05-15T00:07:51.755Z,1016.95
2018-05-15T00:09:00.619Z,1016.96
2018-05-15T00:10:09.483Z,1016.97
2018-05-15T00:11:18.834Z,1016.98
2018-05-15T00:12:27.696Z,1016.96
2018-05-15T00:13:36.558Z,1016.97
2018-05-15T00:14:45.424Z,1017
2018-05-15T00:15:54.283Z,1016.98
2018-05-15T00:17:03.145Z,1017.04
2018-05-15T00:18:12.008Z,1016.98
2018-05-15T00:19:20.870Z,1017.01
2018-05-15T00:20:29.737Z,1017.03
2018-05-15T00:21:38.599Z,1017.02
2018-05-15T00:22:47.457Z,1017.03
2018-05-15T00:23:56.319Z,1017.07
2018-05-15T00:25:05.180Z,1017.1
2018-05-15T00:26:14.321Z,1017.07
2018-05-15T00:27:23.460Z,1017.11
2018-05-15T00:28:32.672Z,1017.14
2018-05-15T00:29:41.534Z,1017.15
2018-05-15T00:30:50.679Z,1017.19
2018-05-15T00:31:59.820Z,1017.18
2018-05-15T00:33:08.682Z,1017.18
2018-05-15T00:34:18.170Z,1017.17
2018-05-15T00:35:27.038Z,1017.17
2018-05-15T00:36:35.910Z,1017.18
2018-05-15T00:37:45.327Z,1017.18
2018-05-15T00:38:54.475Z,1017.16
2018-05-15T00:40:03.343Z,1017.16
2018-05-15T00:41:12.206Z,1017.19
2018-05-15T00:42:21.347Z,1017.17
2018-05-15T00:43:30.208Z,1017.23
2018-05-15T00:44:39.069Z,1017.19
2018-05-15T00:45:48.639Z,1017.19
2018-05-15T00:46:57.778Z,1017.22
2018-05-15T00:48:06.640Z,1017.17
2018-05-15T00:49:15.501Z,1017.22
2018-05-15T00:50:24.360Z,1017.2
2018-05-15T00:51:33.221Z,1017.2
2018-05-15T00:52:42.357Z,1017.21
2018-05-15T00:53:51.498Z,1017.16
2018-05-15T00:55:00.636Z,1017.18
2018-05-15T00:56:09.774Z,1017.18
2018-05-15T00:57:18.986Z,1017.19
2018-05-15T00:58:27.847Z,1017.19
2018-05-15T00:59:36.987Z,1017.2
2018-05-15T01:00:45.850Z,1017.23
2018-05-15T01:01:55.266Z,1017.25
2018-05-15T01:03:04.483Z,1017.23
2018-05-15T01:04:13.344Z,1017.27
2018-05-15T01:05:22.487Z,1017.26
2018-05-15T01:06:31.350Z,1017.26
2018-05-15T01:07:40.208Z,1017.26
2018-05-15T01:08:49.120Z,1017.26
2018-05-15T01:09:57.982Z,1017.29
2018-05-15T01:11:06.844Z,1017.29
2018-05-15T01:12:15.709Z,1017.25
2018-05-15T01:13:24.575Z,1017.28
2018-05-15T01:14:33.433Z,1017.29
2018-05-15T01:15:42.305Z,1017.27
2018-05-15T01:16:51.155Z,1017.33
2018-05-15T01:18:00.019Z,1017.28
2018-05-15T01:19:08.880Z,1017.26
2018-05-15T01:20:17.844Z,1017.27
2018-05-15T01:21:26.705Z,1017.3
2018-05-15T01:22:35.847Z,1017.32
2018-05-15T01:23:44.990Z,1017.34
2018-05-15T01:24:53.850Z,1017.36
2018-05-15T01:26:02.712Z,1017.36
2018-05-15T01:27:11.575Z,1017.36
2018-05-15T01:28:20.436Z,1017.34
2018-05-15T01:29:29.296Z,1017.37
2018-05-15T01:30:38.164Z,1017.35
2018-05-15T01:31:47.273Z,1017.38
2018-05-15T01:32:56.137Z,1017.36
2018-05-15T01:34:04.997Z,1017.33
2018-05-15T01:35:13.859Z,1017.34
2018-05-15T01:36:22.721Z,1017.36
2018-05-15T01:37:31.580Z,1017.33
2018-05-15T01:38:40.439Z,1017.37
2018-05-15T01:39:49.300Z,1017.41
2018-05-15T01:40:58.187Z,1017.42
2018-05-15T01:42:07.051Z,1017.4
2018-05-15T01:43:15.911Z,1017.41
2018-05-15T01:44:24.774Z,1017.41
2018-05-15T01:45:33.912Z,1017.41
2018-05-15T01:46:43.061Z,1017.42
2018-05-15T01:47:51.924Z,1017.4
2018-05-15T01:49:01.032Z,1017.41
2018-05-15T01:50:10.200Z,1017.43
2018-05-15T01:51:19.062Z,1017.42
2018-05-15T01:52:27.923Z,1017.43
2018-05-15T01:53:36.791Z,1017.41
2018-05-15T01:54:45.652Z,1017.41
2018-05-15T01:55:54.511Z,1017.42
2018-05-15T01:57:03.374Z,1017.37
2018-05-15T01:58:12.232Z,1017.39
2018-05-15T01:59:21.093Z,1017.44
2018-05-15T02:00:30.458Z,1017.38
2018-05-15T02:01:39.326Z,1017.41
2018-05-15T02:02:48.181Z,1017.39
2018-05-15T02:03:57.319Z,1017.33
2018-05-15T02:05:06.457Z,1017.32
2018-05-15T02:06:15.755Z,1017.33
2018-05-15T02:07:24.616Z,1017.33
2018-05-15T02:08:33.754Z,1017.37
2018-05-15T02:09:42.616Z,1017.36
2018-05-15T02:10:51.478Z,1017.37
2018-05-15T02:12:00.452Z,1017.33
2018-05-15T02:13:09.314Z,1017.34
2018-05-15T02:14:18.173Z,1017.33
2018-05-15T02:15:27.037Z,1017.33
2018-05-15T02:16:36.174Z,1017.35
2018-05-15T02:17:45.367Z,1017.34
2018-05-15T02:18:54.225Z,1017.32
2018-05-15T02:20:03.086Z,1017.3
2018-05-15T02:21:12.228Z,1017.32
2018-05-15T02:22:21.091Z,1017.31
2018-05-15T02:23:30.101Z,1017.34
2018-05-15T02:24:39.244Z,1017.31
2018-05-15T02:25:48.104Z,1017.28
2018-05-15T02:26:56.967Z,1017.29
2018-05-15T02:28:05.827Z,1017.29
2018-05-15T02:29:15.120Z,1017.24
2018-05-15T02:30:23.990Z,1017.29
2018-05-15T02:31:33.618Z,1017.26
2018-05-15T02:32:43.042Z,1017.29
2018-05-15T02:33:52.455Z,1017.3
2018-05-15T02:35:02.326Z,1017.32
2018-05-15T02:36:11.187Z,1017.28
2018-05-15T02:37:20.051Z,1017.35
2018-05-15T02:38:29.199Z,1017.41
2018-05-15T02:39:38.350Z,1017.35
2018-05-15T02:40:47.931Z,1017.33
2018-05-15T02:41:57.362Z,1017.38
2018-05-15T02:43:06.242Z,1017.36
2018-05-15T02:44:15.779Z,1017.36
2018-05-15T02:45:24.930Z,1017.34
2018-05-15T02:46:33.895Z,1017.36
2018-05-15T02:47:43.597Z,1017.39
2018-05-15T02:48:52.737Z,1017.39
2018-05-15T02:50:01.882Z,1017.4
2018-05-15T02:51:11.028Z,1017.38
2018-05-15T02:52:19.990Z,1017.39
2018-05-15T02:53:29.136Z,1017.38
2018-05-15T02:54:38.283Z,1017.35
2018-05-15T02:55:47.423Z,1017.38
2018-05-15T02:56:56.281Z,1017.37
2018-05-15T02:58:05.494Z,1017.34
2018-05-15T02:59:14.642Z,1017.34
2018-05-15T03:00:23.502Z,1017.33
2018-05-15T03:01:32.652Z,1017.29
2018-05-15T03:02:41.792Z,1017.29
2018-05-15T03:03:51.298Z,1017.28
2018-05-15T03:05:00.166Z,1017.25
2018-05-15T03:06:09.312Z,1017.27
2018-05-15T03:07:18.458Z,1017.22
2018-05-15T03:08:27.325Z,1017.23
2018-05-15T03:09:36.566Z,1017.23
2018-05-15T03:10:45.430Z,1017.22
2018-05-15T03:11:54.566Z,1017.25
2018-05-15T03:13:03.987Z,1017.27
2018-05-15T03:14:12.851Z,1017.27
2018-05-15T03:15:21.866Z,1017.3
2018-05-15T03:16:30.727Z,1017.32
2018-05-15T03:17:40.143Z,1017.3
2018-05-15T03:18:49.002Z,1017.36
2018-05-15T03:19:58.421Z,1017.36
2018-05-15T03:21:07.333Z,1017.39
2018-05-15T03:22:16.195Z,1017.4
2018-05-15T03:23:25.056Z,1017.4
2018-05-15T03:24:34.201Z,1017.37
2018-05-15T03:25:43.061Z,1017.38
2018-05-15T03:26:51.970Z,1017.39
2018-05-15T03:28:00.832Z,1017.41
2018-05-15T03:29:09.692Z,1017.38
2018-05-15T03:30:18.554Z,1017.4
2018-05-15T03:31:27.705Z,1017.37
2018-05-15T03:32:36.920Z,1017.4
2018-05-15T03:33:46.064Z,1017.36
2018-05-15T03:34:55.209Z,1017.4
2018-05-15T03:36:04.063Z,1017.41
2018-05-15T03:37:12.925Z,1017.4
2018-05-15T03:38:21.798Z,1017.4
2018-05-15T03:39:30.939Z,1017.45
2018-05-15T03:40:39.801Z,1017.45
2018-05-15T03:41:48.659Z,1017.48
2018-05-15T03:42:57.522Z,1017.49
2018-05-15T03:44:06.533Z,1017.48
2018-05-15T03:45:15.394Z,1017.51
2018-05-15T03:46:24.255Z,1017.47
2018-05-15T03:47:33.113Z,1017.48
2018-05-15T03:48:42.251Z,1017.48
2018-05-15T03:49:51.488Z,1017.45
2018-05-15T03:51:00.355Z,1017.47
2018-05-15T03:52:09.491Z,1017.5
2018-05-15T03:53:18.355Z,1017.47
2018-05-15T03:54:27.495Z,1017.49
2018-05-15T03:55:36.356Z,1017.48
2018-05-15T03:56:45.768Z,1017.49
2018-05-15T03:57:54.626Z,1017.44
2018-05-15T03:59:03.495Z,1017.44
2018-05-15T04:00:12.347Z,1017.5
2018-05-15T04:01:21.559Z,1017.5
2018-05-15T04:02:30.700Z,1017.46
2018-05-15T04:03:39.844Z,1017.51
2018-05-15T04:04:48.988Z,1017.45
2018-05-15T04:05:57.849Z,1017.53
2018-05-15T04:07:06.711Z,1017.49
2018-05-15T04:08:15.847Z,1017.49
2018-05-15T04:09:24.705Z,1017.48
2018-05-15T04:10:33.564Z,1017.44
2018-05-15T04:11:42.425Z,1017.44
2018-05-15T04:12:51.660Z,1017.46
2018-05-15T04:14:00.521Z,1017.47
2018-05-15T04:15:09.386Z,1017.48
2018-05-15T04:16:18.245Z,1017.51
2018-05-15T04:17:27.389Z,1017.48
2018-05-15T04:18:36.400Z,1017.46
2018-05-15T04:19:45.261Z,1017.45
2018-05-15T04:20:54.121Z,1017.46
2018-05-15T04:22:02.984Z,1017.44
2018-05-15T04:23:12.121Z,1017.49
2018-05-15T04:24:20.980Z,1017.49
2018-05-15T04:25:29.838Z,1017.47
2018-05-15T04:26:38.982Z,1017.47
2018-05-15T04:27:47.843Z,1017.51
2018-05-15T04:28:56.982Z,1017.5
2018-05-15T04:30:05.843Z,1017.47
2018-05-15T04:31:14.702Z,1017.48
2018-05-15T04:32:23.566Z,1017.49
2018-05-15T04:33:32.717Z,1017.52
2018-05-15T04:34:41.853Z,1017.5
2018-05-15T04:35:50.716Z,1017.49
2018-05-15T04:36:59.853Z,1017.53
2018-05-15T04:38:08.999Z,1017.48
2018-05-15T04:39:17.854Z,1017.49
2018-05-15T04:40:27.272Z,1017.51
2018-05-15T04:41:36.184Z,1017.53
2018-05-15T04:42:45.320Z,1017.56
2018-05-15T04:43:54.292Z,1017.57
2018-05-15T04:45:04.175Z,1017.57
2018-05-15T04:46:13.313Z,1017.58
2018-05-15T04:47:22.528Z,1017.53
2018-05-15T04:48:31.380Z,1017.58
2018-05-15T04:49:40.241Z,1017.52
2018-05-15T04:50:49.106Z,1017.49
2018-05-15T04:51:58.579Z,1017.53
2018-05-15T04:53:12.851Z,1017.49
2018-05-15T04:54:21.986Z,1017.54
2018-05-15T04:55:31.125Z,1017.52
2018-05-15T04:56:40.743Z,1017.55
2018-05-15T04:57:49.606Z,1017.55
2018-05-15T04:58:58.818Z,1017.55
2018-05-15T05:00:07.679Z,1017.59
2018-05-15T05:01:16.816Z,1017.62
2018-05-15T05:02:26.235Z,1017.63
2018-05-15T05:03:35.369Z,1017.61
2018-05-15T05:04:44.856Z,1017.63
2018-05-15T05:05:53.816Z,1017.68
2018-05-15T05:07:02.676Z,1017.71
2018-05-15T05:08:11.534Z,1017.68
2018-05-15T05:09:20.395Z,1017.71
2018-05-15T05:10:29.507Z,1017.72
2018-05-15T05:11:38.411Z,1017.73
2018-05-15T05:12:47.230Z,1017.77
2018-05-15T05:13:56.090Z,1017.75
2018-05-15T05:15:05.245Z,1017.81
2018-05-15T05:16:14.097Z,1017.79
2018-05-15T05:17:23.238Z,1017.82
2018-05-15T05:18:32.100Z,1017.77
2018-05-15T05:19:41.236Z,1017.82
2018-05-15T05:20:50.374Z,1017.81
2018-05-15T05:21:59.334Z,1017.82
2018-05-15T05:23:08.199Z,1017.78
2018-05-15T05:24:17.333Z,1017.8
2018-05-15T05:25:26.476Z,1017.8
2018-05-15T05:26:35.332Z,1017.8
2018-05-15T05:27:44.551Z,1017.77
2018-05-15T05:28:53.696Z,1017.78
2018-05-15T05:30:02.570Z,1017.8
2018-05-15T05:31:11.713Z,1017.79
2018-05-15T05:32:20.574Z,1017.8
2018-05-15T05:33:29.814Z,1017.78
2018-05-15T05:34:38.672Z,1017.77
2018-05-15T05:35:47.536Z,1017.78
2018-05-15T05:36:56.446Z,1017.75
2018-05-15T05:38:05.589Z,1017.74
2018-05-15T05:39:14.601Z,1017.77
2018-05-15T05:40:23.737Z,1017.79
2018-05-15T05:41:32.600Z,1017.74
2018-05-15T05:42:41.750Z,1017.74
2018-05-15T05:43:50.613Z,1017.78
2018-05-15T05:45:00.109Z,1017.78
2018-05-15T05:46:09.252Z,1017.81
2018-05-15T05:47:18.114Z,1017.78
2018-05-15T05:48:26.971Z,1017.78
2018-05-15T05:49:35.938Z,1017.79
2018-05-15T05:50:44.848Z,1017.81
2018-05-15T05:51:53.995Z,1017.76
2018-05-15T05:53:03.135Z,1017.82
2018-05-15T05:54:11.996Z,1017.82
2018-05-15T05:55:20.859Z,1017.86
2018-05-15T05:56:29.745Z,1017.91
2018-05-15T05:57:38.608Z,1017.87
2018-05-15T05:58:47.472Z,1017.89
2018-05-15T05:59:56.986Z,1017.92
2018-05-15T06:01:06.134Z,1017.92
2018-05-15T06:02:15.121Z,1017.94
2018-05-15T06:03:23.983Z,1017.9
2018-05-15T06:04:33.156Z,1017.89
2018-05-15T06:05:42.310Z,1017.92
2018-05-15T06:06:51.451Z,1017.88
2018-05-15T06:08:00.464Z,1017.9
2018-05-15T06:09:09.607Z,1017.91
2018-05-15T06:10:18.478Z,1017.89
2018-05-15T06:11:27.618Z,1017.91
2018-05-15T06:12:36.502Z,1017.95
2018-05-15T06:13:45.616Z,1017.95
2018-05-15T06:14:54.479Z,1017.92
2018-05-15T06:16:03.339Z,1017.94
2018-05-15T06:17:12.483Z,1017.93
2018-05-15T06:18:21.345Z,1017.9
2018-05-15T06:19:30.559Z,1017.88
2018-05-15T06:20:39.723Z,1017.89
2018-05-15T06:21:49.702Z,1017.89
2018-05-15T06:22:58.564Z,1017.87
2018-05-15T06:24:07.429Z,1017.9
2018-05-15T06:25:16.341Z,1017.92
2018-05-15T06:26:25.484Z,1017.94
2018-05-15T06:27:34.394Z,1017.95
2018-05-15T06:28:43.210Z,1017.98
2018-05-15T06:29:52.123Z,1017.99
2018-05-15T06:31:01.421Z,1018.04
2018-05-15T06:32:10.282Z,1018.02
2018-05-15T06:33:19.477Z,1018.01
2018-05-15T06:34:28.342Z,1017.99
2018-05-15T06:35:37.201Z,1017.97
2018-05-15T06:36:46.062Z,1017.98
2018-05-15T06:37:54.924Z,1017.96
2018-05-15T06:39:03.789Z,1017.98
2018-05-15T06:40:12.652Z,1017.91
2018-05-15T06:41:21.513Z,1017.95
2018-05-15T06:42:30.707Z,1018
2018-05-15T06:43:39.566Z,1018.05
2018-05-15T06:44:48.739Z,1018.06
2018-05-15T06:45:57.571Z,1018.14
2018-05-15T06:47:06.723Z,1018.12
2018-05-15T06:48:15.936Z,1018.07
2018-05-15T06:49:24.796Z,1018.07
2018-05-15T06:50:33.657Z,1018.08
2018-05-15T06:51:42.794Z,1018.08
2018-05-15T06:52:51.932Z,1018.1
2018-05-15T06:54:01.229Z,1018.14
2018-05-15T06:55:10.091Z,1018.1
2018-05-15T06:56:19.232Z,1018.06
2018-05-15T06:57:28.092Z,1018.04
2018-05-15T06:58:37.233Z,1018.04
2018-05-15T06:59:46.143Z,1018.09
2018-05-15T07:00:55.005Z,1018.14
2018-05-15T07:02:03.868Z,1018.11
2018-05-15T07:03:12.730Z,1018.13
2018-05-15T07:04:21.874Z,1018.1
2018-05-15T07:05:30.787Z,1018.06
2018-05-15T07:06:39.648Z,1018.1
2018-05-15T07:07:48.612Z,1018.07
2018-05-15T07:08:57.374Z,1018.07
2018-05-15T07:10:06.235Z,1018.08
2018-05-15T07:11:15.250Z,1018.06
2018-05-15T07:12:24.114Z,1018.07
2018-05-15T07:13:33.529Z,1018.06
2018-05-15T07:14:42.676Z,1018.07
2018-05-15T07:15:51.535Z,1018.09
2018-05-15T07:17:00.862Z,1018.05
2018-05-15T07:18:09.715Z,1018.07
2018-05-15T07:19:18.581Z,1018.07
2018-05-15T07:20:27.813Z,1018.07
2018-05-15T07:21:36.678Z,1018.1
2018-05-15T07:22:45.867Z,1018.11
2018-05-15T07:23:55.015Z,1018.11
2018-05-15T07:25:03.872Z,1018.11
2018-05-15T07:26:13.018Z,1018.12
2018-05-15T07:27:21.926Z,1018.07
2018-05-15T07:28:31.135Z,1018.11
2018-05-15T07:29:39.993Z,1018.14
2018-05-15T07:30:48.858Z,1018.11
2018-05-15T07:31:57.728Z,1018.11
2018-05-15T07:33:06.670Z,1018.1
2018-05-15T07:34:15.803Z,1018.09
2018-05-15T07:35:24.667Z,1018.04
2018-05-15T07:36:33.530Z,1018.03
2018-05-15T07:37:42.674Z,1018.05
2018-05-15T07:38:51.537Z,1018.05
2018-05-15T07:40:00.497Z,1018.02
2018-05-15T07:41:09.359Z,1018
2018-05-15T07:42:18.223Z,1018.03
2018-05-15T07:43:27.093Z,1018.02
2018-05-15T07:44:36.235Z,1018.03
2018-05-15T07:45:45.149Z,1018.03
2018-05-15T07:46:54.014Z,1018.03
2018-05-15T07:48:02.882Z,1018.05
2018-05-15T07:49:12.095Z,1018.06
2018-05-15T07:50:21.237Z,1018
2018-05-15T07:51:30.106Z,1018.03
2018-05-15T07:52:39.244Z,1018.01
2018-05-15T07:53:48.109Z,1018.02
2018-05-15T07:54:56.973Z,1018.09
2018-05-15T07:56:05.838Z,1018.08
2018-05-15T07:57:15.030Z,1018.09
2018-05-15T07:58:23.891Z,1018.13
2018-05-15T07:59:32.752Z,1018.09
2018-05-15T08:00:41.897Z,1018.09
2018-05-15T08:01:51.039Z,1018.08
2018-05-15T08:03:00.359Z,1018.12
2018-05-15T08:04:09.792Z,1018.11
2018-05-15T08:05:19.003Z,1018.14
2018-05-15T08:06:28.143Z,1018.13
2018-05-15T08:07:37.005Z,1018.1
2018-05-15T08:08:45.918Z,1018.13
2018-05-15T08:09:54.882Z,1018.09
2018-05-15T08:11:03.748Z,1018.13
2018-05-15T08:12:12.901Z,1018.12
2018-05-15T08:13:21.767Z,1018.12
2018-05-15T08:14:31.198Z,1018.14
2018-05-15T08:15:40.065Z,1018.17
2018-05-15T08:16:48.928Z,1018.17
2018-05-15T08:17:57.794Z,1018.16
2018-05-15T08:19:06.659Z,1018.17
2018-05-15T08:20:15.572Z,1018.15
2018-05-15T08:21:24.439Z,1018.09
2018-05-15T08:22:33.387Z,1018.15
2018-05-15T08:23:42.821Z,1018.14
2018-05-15T08:24:52.242Z,1018.18
2018-05-15T08:26:01.362Z,1018.13
2018-05-15T08:27:10.504Z,1018.14
2018-05-15T08:28:19.924Z,1018.15
2018-05-15T08:29:28.791Z,1018.15
2018-05-15T08:30:37.653Z,1018.18
2018-05-15T08:31:47.034Z,1018.18
2018-05-15T08:32:56.174Z,1018.21
2018-05-15T08:34:05.319Z,1018.18
2018-05-15T08:35:14.185Z,1018.16
2018-05-15T08:36:23.048Z,1018.16
2018-05-15T08:37:32.354Z,1018.19
2018-05-15T08:38:41.668Z,1018.16
2018-05-15T08:39:50.806Z,1018.14
2018-05-15T08:40:59.671Z,1018.17
2018-05-15T08:42:08.813Z,1018.19
2018-05-15T08:43:17.928Z,1018.18
2018-05-15T08:44:26.793Z,1018.18
2018-05-15T08:45:35.935Z,1018.16
2018-05-15T08:46:44.799Z,1018.19
2018-05-15T08:47:53.664Z,1018.18
2018-05-15T08:49:02.628Z,1018.19
2018-05-15T08:50:11.492Z,1018.19
2018-05-15T08:51:20.358Z,1018.16
2018-05-15T08:52:29.223Z,1018.21
2018-05-15T08:53:38.083Z,1018.19
2018-05-15T08:54:47.284Z,1018.17
2018-05-15T08:55:56.147Z,1018.2
2018-05-15T08:57:05.289Z,1018.19
2018-05-15T08:58:14.157Z,1018.14
2018-05-15T08:59:23.017Z,1018.15
2018-05-15T09:00:31.928Z,1018.16
2018-05-15T09:01:40.794Z,1018.14
2018-05-15T09:02:49.659Z,1018.15
2018-05-15T09:03:58.522Z,1018.16
2018-05-15T09:05:07.667Z,1018.18
2018-05-15T09:06:17.257Z,1018.12
2018-05-15T09:07:26.127Z,1018.15
2018-05-15T09:08:35.265Z,1018.12
2018-05-15T09:09:44.129Z,1018.14
2018-05-15T09:10:53.044Z,1018.14
2018-05-15T09:12:02.258Z,1018.15
2018-05-15T09:13:11.125Z,1018.16
2018-05-15T09:14:19.989Z,1018.12
2018-05-15T09:15:29.130Z,1018.19
2018-05-15T09:16:38.268Z,1018.1
2018-05-15T09:17:47.520Z,1018.13
2018-05-15T09:18:56.384Z,1018.15
2018-05-15T09:20:05.251Z,1018.13
2018-05-15T09:21:14.116Z,1018.15
2018-05-15T09:22:23.307Z,1018.17
2018-05-15T09:23:32.226Z,1018.14
2018-05-15T09:24:41.368Z,1018.15
2018-05-15T09:25:50.508Z,1018.13
2018-05-15T09:26:59.379Z,1018.06
2018-05-15T09:28:08.621Z,1018.09
2018-05-15T09:29:17.638Z,1018.11
2018-05-15T09:30:26.443Z,1018.1
2018-05-15T09:31:35.589Z,1018.1
2018-05-15T09:32:44.456Z,1018.13
2018-05-15T09:33:53.320Z,1018.13
2018-05-15T09:35:02.917Z,1018.12
2018-05-15T09:36:12.345Z,1018.15
2018-05-15T09:37:21.781Z,1018.06
2018-05-15T09:38:30.645Z,1018.09
2018-05-15T09:39:39.509Z,1018.14
2018-05-15T09:40:48.424Z,1018.13
2018-05-15T09:41:57.290Z,1018.11
2018-05-15T09:43:06.445Z,1018.09
2018-05-15T09:44:15.590Z,1018.05
2018-05-15T09:45:24.730Z,1018.01
2018-05-15T09:46:33.796Z,1018
2018-05-15T09:47:42.667Z,1018.01
2018-05-15T09:48:51.535Z,1018
2018-05-15T09:50:00.403Z,1018.01
2018-05-15T09:51:09.548Z,1017.99
2018-05-15T09:52:18.654Z,1018.01
2018-05-15T09:53:27.428Z,1018.02
2018-05-15T09:54:36.575Z,1018.03
2018-05-15T09:55:45.721Z,1018.02
2018-05-15T09:56:54.589Z,1018.01
2018-05-15T09:58:03.604Z,1017.97
2018-05-15T09:59:12.469Z,1017.99
2018-05-15T10:00:21.611Z,1017.98
2018-05-15T10:01:30.752Z,1017.95
2018-05-15T10:02:39.914Z,1017.94
2018-05-15T10:03:49.161Z,1017.93
2018-05-15T10:04:58.306Z,1017.92
2018-05-15T10:06:07.173Z,1017.85
2018-05-15T10:07:16.043Z,1017.94
2018-05-15T10:08:24.905Z,1017.91
2018-05-15T10:09:33.820Z,1017.83
2018-05-15T10:10:42.688Z,1017.83
2018-05-15T10:11:51.554Z,1017.78
2018-05-15T10:13:00.420Z,1017.86
2018-05-15T10:14:09.377Z,1017.84
2018-05-15T10:15:19.472Z,1017.89
2018-05-15T10:16:28.335Z,1017.88
2018-05-15T10:17:37.200Z,1017.88
2018-05-15T10:18:46.067Z,1017.84
2018-05-15T10:19:55.008Z,1017.82
2018-05-15T10:21:04.996Z,1017.83
2018-05-15T10:22:13.858Z,1017.84
2018-05-15T10:23:22.999Z,1017.89
2018-05-15T10:24:31.870Z,1017.89
2018-05-15T10:25:41.018Z,1017.85
2018-05-15T10:26:49.891Z,1017.82
2018-05-15T10:27:58.752Z,1017.82
2018-05-15T10:29:07.615Z,1017.78
2018-05-15T10:30:16.482Z,1017.75
2018-05-15T10:31:25.348Z,1017.75
2018-05-15T10:32:34.463Z,1017.79
2018-05-15T10:33:43.329Z,1017.78
2018-05-15T10:34:52.201Z,1017.8
2018-05-15T10:36:01.339Z,1017.79
2018-05-15T10:37:10.482Z,1017.78
2018-05-15T10:38:19.674Z,1017.75
2018-05-15T10:39:28.541Z,1017.7
2018-05-15T10:40:37.412Z,1017.72
2018-05-15T10:41:46.277Z,1017.7
2018-05-15T10:42:55.423Z,1017.7
2018-05-15T10:44:04.357Z,1017.67
2018-05-15T10:45:13.157Z,1017.69
2018-05-15T10:46:22.304Z,1017.71
2018-05-15T10:47:31.173Z,1017.67
2018-05-15T10:48:40.038Z,1017.68
2018-05-15T10:49:49.520Z,1017.67
2018-05-15T10:50:58.389Z,1017.68
2018-05-15T10:52:07.255Z,1017.65
2018-05-15T10:53:16.120Z,1017.67
2018-05-15T10:54:25.011Z,1017.68
2018-05-15T10:55:34.004Z,1017.66
2018-05-15T10:56:42.873Z,1017.68
2018-05-15T10:57:51.742Z,1017.68
2018-05-15T10:59:00.616Z,1017.68
2018-05-15T11:00:09.554Z,1017.69
2018-05-15T11:01:18.398Z,1017.69
2018-05-15T11:02:27.265Z,1017.66
2018-05-15T11:03:36.132Z,1017.71
2018-05-15T11:04:45.006Z,1017.65
2018-05-15T11:05:54.451Z,1017.7
2018-05-15T11:07:03.311Z,1017.68
2018-05-15T11:08:12.180Z,1017.65
2018-05-15T11:09:21.327Z,1017.64
2018-05-15T11:10:30.477Z,1017.68
2018-05-15T11:11:39.343Z,1017.63
2018-05-15T11:12:48.781Z,1017.66
2018-05-15T11:13:57.865Z,1017.71
2018-05-15T11:15:07.328Z,1017.69
2018-05-15T11:16:16.195Z,1017.68
2018-05-15T11:17:25.062Z,1017.62
2018-05-15T11:18:34.445Z,1017.7
2018-05-15T11:19:43.613Z,1017.63
2018-05-15T11:20:52.759Z,1017.65
2018-05-15T11:22:01.637Z,1017.61
2018-05-15T11:23:10.500Z,1017.6
2018-05-15T11:24:19.520Z,1017.57
2018-05-15T11:25:28.388Z,1017.53
2018-05-15T11:26:37.257Z,1017.52
2018-05-15T11:27:46.125Z,1017.5
2018-05-15T11:28:54.993Z,1017.52
2018-05-15T11:30:03.960Z,1017.47
2018-05-15T11:31:12.829Z,1017.44
2018-05-15T11:32:21.699Z,1017.5
2018-05-15T11:33:30.844Z,1017.44
2018-05-15T11:34:39.717Z,1017.43
2018-05-15T11:35:48.760Z,1017.45
2018-05-15T11:36:58.340Z,1017.43
2018-05-15T11:38:07.207Z,1017.46
2018-05-15T11:39:16.073Z,1017.39
2018-05-15T11:40:24.941Z,1017.36
2018-05-15T11:41:34.259Z,1017.31
2018-05-15T11:42:43.837Z,1017.36
2018-05-15T11:43:52.715Z,1017.35
2018-05-15T11:45:01.582Z,1017.38
2018-05-15T11:46:10.451Z,1017.31
2018-05-15T11:47:19.392Z,1017.33
2018-05-15T11:48:29.332Z,1017.37
2018-05-15T11:49:40.776Z,1017.35
2018-05-15T11:50:49.491Z,1017.33
2018-05-15T11:52:01.862Z,1017.35
2018-05-15T11:53:12.768Z,1017.32
2018-05-15T11:54:20.837Z,1017.28
2018-05-15T11:55:35.292Z,1017.3
2018-05-15T11:56:45.605Z,1017.28
2018-05-15T11:57:54.585Z,1017.32
2018-05-15T11:59:03.500Z,1017.26
2018-05-15T12:00:12.438Z,1017.29
2018-05-15T12:01:21.240Z,1017.25
2018-05-15T12:02:30.147Z,1017.21
2018-05-15T12:03:39.012Z,1017.21
2018-05-15T12:04:48.645Z,1017.21
2018-05-15T12:05:57.515Z,1017.22
2018-05-15T12:07:06.666Z,1017.28
2018-05-15T12:08:15.589Z,1017.25
2018-05-15T12:09:25.383Z,1017.25
2018-05-15T12:10:34.471Z,1017.25
2018-05-15T12:11:43.768Z,1017.28
2018-05-15T12:12:52.736Z,1017.25
2018-05-15T12:14:01.592Z,1017.22
2018-05-15T12:15:10.906Z,1017.19
2018-05-15T12:16:19.825Z,1017.16
2018-05-15T12:17:28.716Z,1017.11
2018-05-15T12:18:37.610Z,1017.18
2018-05-15T12:19:46.480Z,1017.17
2018-05-15T12:20:55.647Z,1017.18
2018-05-15T12:22:05.573Z,1017.17
2018-05-15T12:23:14.447Z,1017.15
2018-05-15T12:24:23.684Z,1017.16
2018-05-15T12:25:32.474Z,1017.17
2018-05-15T12:26:41.348Z,1017.19
2018-05-15T12:27:50.382Z,1017.16
2018-05-15T12:28:59.530Z,1017.13
2018-05-15T12:30:08.416Z,1017.07
2018-05-15T12:31:17.292Z,1017.04
2018-05-15T12:32:26.167Z,1017.03
2018-05-15T12:33:35.094Z,1017.01
2018-05-15T12:34:44.254Z,1017.03
2018-05-15T12:35:53.164Z,1017.04
2018-05-15T12:37:02.396Z,1017.05
2018-05-15T12:38:11.271Z,1017.07
2018-05-15T12:39:20.194Z,1017.02
2018-05-15T12:40:29.067Z,1017.05
2018-05-15T12:41:38.340Z,1017.01
2018-05-15T12:42:48.043Z,1017
2018-05-15T12:43:57.482Z,1017
2018-05-15T12:45:06.410Z,1017
2018-05-15T12:46:15.290Z,1016.97
2018-05-15T12:47:24.167Z,1017.01
2018-05-15T12:48:33.138Z,1016.95
2018-05-15T12:49:41.911Z,1016.96
2018-05-15T12:50:50.932Z,1016.93
2018-05-15T12:51:59.806Z,1016.94
2018-05-15T12:53:08.955Z,1016.97
2018-05-15T12:54:17.823Z,1016.94
2018-05-15T12:55:26.692Z,1016.96
2018-05-15T12:56:36.090Z,1017.01
2018-05-15T12:57:44.963Z,1016.95
2018-05-15T12:58:53.833Z,1016.98
2018-05-15T13:00:02.703Z,1017.01
2018-05-15T13:01:11.573Z,1016.95
2018-05-15T13:02:20.552Z,1016.93
2018-05-15T13:03:29.423Z,1016.89
2018-05-15T13:04:38.294Z,1016.93
2018-05-15T13:05:47.175Z,1016.89
2018-05-15T13:06:56.042Z,1016.85
2018-05-15T13:08:05.167Z,1016.8
2018-05-15T13:09:14.064Z,1016.81
2018-05-15T13:10:22.938Z,1016.81
2018-05-15T13:11:32.231Z,1016.79
2018-05-15T13:12:41.383Z,1016.79
2018-05-15T13:13:50.355Z,1016.78
2018-05-15T13:14:59.514Z,1016.83
2018-05-15T13:16:08.396Z,1016.86
2018-05-15T13:17:17.545Z,1016.74
2018-05-15T13:18:26.618Z,1016.75
2018-05-15T13:19:35.841Z,1016.77
2018-05-15T13:20:45.012Z,1016.82
2018-05-15T13:21:53.884Z,1016.72
2018-05-15T13:23:02.758Z,1016.68
2018-05-15T13:24:11.953Z,1016.86
2018-05-15T13:25:21.182Z,1016.79
2018-05-15T13:26:30.056Z,1016.75
2018-05-15T13:27:38.928Z,1016.82
2018-05-15T13:28:48.084Z,1016.81
2018-05-15T13:29:57.629Z,1016.79
2018-05-15T13:31:06.444Z,1016.71
2018-05-15T13:32:15.319Z,1016.63
2018-05-15T13:33:24.196Z,1016.65
2018-05-15T13:34:33.352Z,1016.78
2018-05-15T13:35:42.222Z,1016.71
2018-05-15T13:36:51.697Z,1016.72
2018-05-15T13:38:00.572Z,1016.76
2018-05-15T13:39:09.449Z,1016.73
2018-05-15T13:40:18.324Z,1016.78
2018-05-15T13:41:27.202Z,1016.79
2018-05-15T13:42:36.554Z,1016.81
2018-05-15T13:43:45.429Z,1016.8
2018-05-15T13:44:54.306Z,1016.91
2018-05-15T13:46:03.468Z,1016.52
2018-05-15T13:47:12.626Z,1016.71
2018-05-15T13:48:21.507Z,1016.65
2018-05-15T13:49:30.673Z,1016.48
2018-05-15T13:50:39.551Z,1016.48
2018-05-15T13:51:48.430Z,1016.47
2018-05-15T13:52:57.317Z,1016.44
2018-05-15T13:54:06.180Z,1016.41
2018-05-15T13:55:15.347Z,1016.47
2018-05-15T13:56:24.222Z,1016.43
2018-05-15T13:57:33.377Z,1016.43
2018-05-15T13:58:42.253Z,1016.41